sensor_id;sensor_type;location;lat;lon;timestamp;P1;durP1;ratioP1;P2;durP2;ratioP2
13067;SDS011;6600;51.362;6.686;2023-06-10T00:01:29;5.33;;;3.80;;
13067;SDS011;6600;51.362;6.686;2023-06-10T00:03:55;3.77;;;3.37;;
13067;SDS011;6600;51.362;6.686;2023-06-10T00:06:20;4.33;;;3.47;;
13067;SDS011;6600;51.362;6.686;2023-06-10T00:08:49;4.87;;;3.67;;
13067;SDS011;6600;51.362;6.686;2023-06-10T00:11:14;4.23;;;3.57;;
13067;SDS011;6600;51.362;6.686;2023-06-10T00:13:40;4.93;;;3.90;;
13067;SDS011;6600;51.362;6.686;2023-06-10T00:16:05;5.83;;;4.50;;
13067;SDS011;6600;51.362;6.686;2023-06-10T00:18:31;9.73;;;6.63;;
13067;SDS011;6600;51.362;6.686;2023-06-10T00:20:56;15.40;;;7.07;;
13067;SDS011;6600;51.362;6.686;2023-06-10T00:23:28;14.17;;;5.70;;
13067;SDS011;6600;51.362;6.686;2023-06-10T00:25:55;6.20;;;4.20;;
13067;SDS011;6600;51.362;6.686;2023-06-10T00:28:22;6.93;;;3.63;;
13067;SDS011;6600;51.362;6.686;2023-06-10T00:30:48;4.30;;;3.60;;
13067;SDS011;6600;51.362;6.686;2023-06-10T00:33:13;6.33;;;3.77;;
13067;SDS011;6600;51.362;6.686;2023-06-10T00:35:38;7.03;;;4.30;;
13067;SDS011;6600;51.362;6.686;2023-06-10T00:38:03;13.43;;;5.83;;
13067;SDS011;6600;51.362;6.686;2023-06-10T00:40:29;11.97;;;6.87;;
13067;SDS011;6600;51.362;6.686;2023-06-10T00:42:54;11.57;;;6.80;;
13067;SDS011;6600;51.362;6.686;2023-06-10T00:45:20;9.23;;;5.03;;
13067;SDS011;6600;51.362;6.686;2023-06-10T00:47:45;12.10;;;6.10;;
13067;SDS011;6600;51.362;6.686;2023-06-10T00:50:10;7.90;;;5.60;;
13067;SDS011;6600;51.362;6.686;2023-06-10T00:52:36;8.60;;;4.60;;
13067;SDS011;6600;51.362;6.686;2023-06-10T00:55:01;5.27;;;4.07;;
13067;SDS011;6600;51.362;6.686;2023-06-10T00:57:27;5.40;;;4.23;;
13067;SDS011;6600;51.362;6.686;2023-06-10T00:59:52;5.33;;;4.03;;
13067;SDS011;6600;51.362;6.686;2023-06-10T01:02:19;8.00;;;4.50;;
13067;SDS011;6600;51.362;6.686;2023-06-10T01:04:45;8.47;;;5.40;;
13067;SDS011;6600;51.362;6.686;2023-06-10T01:07:29;9.10;;;5.17;;
13067;SDS011;6600;51.362;6.686;2023-06-10T01:15:05;5.10;;;4.00;;
13067;SDS011;6600;51.362;6.686;2023-06-10T01:17:31;7.70;;;3.77;;
13067;SDS011;6600;51.362;6.686;2023-06-10T01:19:56;5.63;;;4.63;;
13067;SDS011;6600;51.362;6.686;2023-06-10T01:22:23;5.73;;;3.93;;
13067;SDS011;6600;51.362;6.686;2023-06-10T01:24:57;6.83;;;4.73;;
13067;SDS011;6600;51.362;6.686;2023-06-10T01:27:23;5.63;;;4.00;;
13067;SDS011;6600;51.362;6.686;2023-06-10T01:29:54;3.50;;;3.20;;
13067;SDS011;6600;51.362;6.686;2023-06-10T01:32:29;4.23;;;3.23;;
13067;SDS011;6600;51.362;6.686;2023-06-10T01:34:59;5.70;;;3.47;;
13067;SDS011;6600;51.362;6.686;2023-06-10T01:37:27;4.10;;;3.37;;
13067;SDS011;6600;51.362;6.686;2023-06-10T01:39:55;3.10;;;2.80;;
13067;SDS011;6600;51.362;6.686;2023-06-10T01:42:23;4.40;;;3.03;;
13067;SDS011;6600;51.362;6.686;2023-06-10T01:44:50;4.20;;;3.40;;
13067;SDS011;6600;51.362;6.686;2023-06-10T01:47:15;3.67;;;3.37;;
13067;SDS011;6600;51.362;6.686;2023-06-10T01:49:40;3.90;;;3.10;;
13067;SDS011;6600;51.362;6.686;2023-06-10T01:52:06;4.67;;;3.43;;
13067;SDS011;6600;51.362;6.686;2023-06-10T01:54:31;5.27;;;4.00;;
13067;SDS011;6600;51.362;6.686;2023-06-10T01:56:59;11.83;;;6.00;;
13067;SDS011;6600;51.362;6.686;2023-06-10T01:59:25;12.40;;;5.97;;
13067;SDS011;6600;51.362;6.686;2023-06-10T02:01:50;7.53;;;4.47;;
13067;SDS011;6600;51.362;6.686;2023-06-10T02:04:15;6.17;;;4.40;;
13067;SDS011;6600;51.362;6.686;2023-06-10T02:06:41;4.43;;;3.80;;
13067;SDS011;6600;51.362;6.686;2023-06-10T02:09:07;4.73;;;3.33;;
13067;SDS011;6600;51.362;6.686;2023-06-10T02:11:32;6.00;;;4.00;;
13067;SDS011;6600;51.362;6.686;2023-06-10T02:13:58;5.53;;;4.50;;
13067;SDS011;6600;51.362;6.686;2023-06-10T02:16:23;6.60;;;3.73;;
13067;SDS011;6600;51.362;6.686;2023-06-10T02:18:49;4.67;;;3.73;;
13067;SDS011;6600;51.362;6.686;2023-06-10T02:21:14;3.50;;;3.20;;
13067;SDS011;6600;51.362;6.686;2023-06-10T02:23:39;4.63;;;3.43;;
13067;SDS011;6600;51.362;6.686;2023-06-10T02:26:05;3.33;;;3.03;;
13067;SDS011;6600;51.362;6.686;2023-06-10T02:28:30;5.90;;;3.83;;
13067;SDS011;6600;51.362;6.686;2023-06-10T02:30:56;5.40;;;3.83;;
13067;SDS011;6600;51.362;6.686;2023-06-10T02:33:22;4.17;;;3.77;;
13067;SDS011;6600;51.362;6.686;2023-06-10T02:35:48;6.63;;;3.80;;
13067;SDS011;6600;51.362;6.686;2023-06-10T02:38:13;6.20;;;4.40;;
13067;SDS011;6600;51.362;6.686;2023-06-10T02:40:38;6.17;;;4.53;;
13067;SDS011;6600;51.362;6.686;2023-06-10T02:43:04;19.03;;;10.13;;
13067;SDS011;6600;51.362;6.686;2023-06-10T02:45:29;24.80;;;10.63;;
13067;SDS011;6600;51.362;6.686;2023-06-10T02:47:54;14.07;;;8.30;;
13067;SDS011;6600;51.362;6.686;2023-06-10T02:50:20;17.23;;;8.47;;
13067;SDS011;6600;51.362;6.686;2023-06-10T02:52:45;16.87;;;7.90;;
13067;SDS011;6600;51.362;6.686;2023-06-10T02:55:10;7.40;;;5.43;;
13067;SDS011;6600;51.362;6.686;2023-06-10T02:57:36;7.90;;;5.17;;
13067;SDS011;6600;51.362;6.686;2023-06-10T03:00:01;6.77;;;4.30;;
13067;SDS011;6600;51.362;6.686;2023-06-10T03:02:29;4.27;;;3.87;;
13067;SDS011;6600;51.362;6.686;2023-06-10T03:04:56;4.93;;;3.87;;
13067;SDS011;6600;51.362;6.686;2023-06-10T03:07:22;3.83;;;3.37;;
13067;SDS011;6600;51.362;6.686;2023-06-10T03:09:48;3.97;;;3.17;;
13067;SDS011;6600;51.362;6.686;2023-06-10T03:12:14;4.60;;;3.50;;
13067;SDS011;6600;51.362;6.686;2023-06-10T03:14:39;3.80;;;3.37;;
13067;SDS011;6600;51.362;6.686;2023-06-10T03:17:05;4.63;;;3.53;;
13067;SDS011;6600;51.362;6.686;2023-06-10T03:19:31;4.70;;;3.83;;
13067;SDS011;6600;51.362;6.686;2023-06-10T03:22:06;4.33;;;3.53;;
13067;SDS011;6600;51.362;6.686;2023-06-10T03:24:33;6.03;;;3.80;;
13067;SDS011;6600;51.362;6.686;2023-06-10T03:27:00;4.07;;;3.67;;
13067;SDS011;6600;51.362;6.686;2023-06-10T03:29:26;4.50;;;3.70;;
13067;SDS011;6600;51.362;6.686;2023-06-10T03:31:51;4.03;;;3.60;;
13067;SDS011;6600;51.362;6.686;2023-06-10T03:34:16;4.17;;;3.47;;
13067;SDS011;6600;51.362;6.686;2023-06-10T03:36:42;5.20;;;3.60;;
13067;SDS011;6600;51.362;6.686;2023-06-10T03:39:07;4.77;;;3.77;;
13067;SDS011;6600;51.362;6.686;2023-06-10T03:41:33;4.40;;;3.87;;
13067;SDS011;6600;51.362;6.686;2023-06-10T03:43:59;3.53;;;3.23;;
13067;SDS011;6600;51.362;6.686;2023-06-10T03:46:25;4.90;;;3.53;;
13067;SDS011;6600;51.362;6.686;2023-06-10T03:48:50;4.23;;;3.67;;
13067;SDS011;6600;51.362;6.686;2023-06-10T03:51:16;3.60;;;3.30;;
13067;SDS011;6600;51.362;6.686;2023-06-10T03:53:41;3.50;;;3.20;;
13067;SDS011;6600;51.362;6.686;2023-06-10T03:56:06;4.27;;;3.60;;
13067;SDS011;6600;51.362;6.686;2023-06-10T03:58:32;4.33;;;3.77;;
13067;SDS011;6600;51.362;6.686;2023-06-10T04:00:57;4.70;;;3.53;;
13067;SDS011;6600;51.362;6.686;2023-06-10T04:03:23;3.73;;;3.43;;
13067;SDS011;6600;51.362;6.686;2023-06-10T04:05:48;3.87;;;3.10;;
13067;SDS011;6600;51.362;6.686;2023-06-10T04:08:15;4.03;;;3.30;;
13067;SDS011;6600;51.362;6.686;2023-06-10T04:10:40;4.47;;;3.27;;
13067;SDS011;6600;51.362;6.686;2023-06-10T04:13:06;6.07;;;3.87;;
13067;SDS011;6600;51.362;6.686;2023-06-10T04:15:31;4.40;;;3.43;;
13067;SDS011;6600;51.362;6.686;2023-06-10T04:17:59;4.20;;;3.77;;
13067;SDS011;6600;51.362;6.686;2023-06-10T04:20:26;3.97;;;3.33;;
13067;SDS011;6600;51.362;6.686;2023-06-10T04:22:51;3.90;;;3.53;;
13067;SDS011;6600;51.362;6.686;2023-06-10T04:25:17;4.57;;;3.80;;
13067;SDS011;6600;51.362;6.686;2023-06-10T04:27:42;5.07;;;3.33;;
13067;SDS011;6600;51.362;6.686;2023-06-10T04:30:08;4.80;;;4.10;;
13067;SDS011;6600;51.362;6.686;2023-06-10T04:32:34;5.73;;;3.47;;
13067;SDS011;6600;51.362;6.686;2023-06-10T04:34:59;5.10;;;3.77;;
13067;SDS011;6600;51.362;6.686;2023-06-10T04:37:25;4.87;;;3.40;;
13067;SDS011;6600;51.362;6.686;2023-06-10T04:39:50;4.83;;;3.63;;
13067;SDS011;6600;51.362;6.686;2023-06-10T04:42:15;4.50;;;3.60;;
13067;SDS011;6600;51.362;6.686;2023-06-10T04:44:41;4.17;;;3.77;;
13067;SDS011;6600;51.362;6.686;2023-06-10T04:47:06;3.93;;;3.63;;
13067;SDS011;6600;51.362;6.686;2023-06-10T04:49:32;3.73;;;3.27;;
13067;SDS011;6600;51.362;6.686;2023-06-10T04:51:58;5.07;;;4.07;;
13067;SDS011;6600;51.362;6.686;2023-06-10T04:54:25;5.50;;;4.23;;
13067;SDS011;6600;51.362;6.686;2023-06-10T04:56:50;4.60;;;4.13;;
13067;SDS011;6600;51.362;6.686;2023-06-10T04:59:15;5.53;;;3.53;;
13067;SDS011;6600;51.362;6.686;2023-06-10T05:01:41;5.17;;;3.87;;
13067;SDS011;6600;51.362;6.686;2023-06-10T05:04:06;4.37;;;3.77;;
13067;SDS011;6600;51.362;6.686;2023-06-10T05:06:31;5.30;;;3.93;;
13067;SDS011;6600;51.362;6.686;2023-06-10T05:08:56;5.10;;;3.67;;
13067;SDS011;6600;51.362;6.686;2023-06-10T05:11:22;6.23;;;4.57;;
13067;SDS011;6600;51.362;6.686;2023-06-10T05:13:47;3.97;;;3.60;;
13067;SDS011;6600;51.362;6.686;2023-06-10T05:16:13;5.63;;;4.80;;
13067;SDS011;6600;51.362;6.686;2023-06-10T05:18:40;5.57;;;4.63;;
13067;SDS011;6600;51.362;6.686;2023-06-10T05:21:05;7.30;;;4.60;;
13067;SDS011;6600;51.362;6.686;2023-06-10T05:23:31;4.60;;;4.17;;
13067;SDS011;6600;51.362;6.686;2023-06-10T05:25:56;6.00;;;4.33;;
13067;SDS011;6600;51.362;6.686;2023-06-10T05:28:21;5.50;;;4.57;;
13067;SDS011;6600;51.362;6.686;2023-06-10T05:30:47;4.67;;;4.23;;
13067;SDS011;6600;51.362;6.686;2023-06-10T05:33:12;4.50;;;4.10;;
13067;SDS011;6600;51.362;6.686;2023-06-10T05:35:37;6.13;;;4.33;;
13067;SDS011;6600;51.362;6.686;2023-06-10T05:38:03;4.87;;;4.00;;
13067;SDS011;6600;51.362;6.686;2023-06-10T05:40:28;4.77;;;3.93;;
13067;SDS011;6600;51.362;6.686;2023-06-10T05:42:54;4.97;;;4.37;;
13067;SDS011;6600;51.362;6.686;2023-06-10T05:45:19;5.43;;;4.60;;
13067;SDS011;6600;51.362;6.686;2023-06-10T05:47:44;5.43;;;4.07;;
13067;SDS011;6600;51.362;6.686;2023-06-10T05:50:10;4.50;;;3.80;;
13067;SDS011;6600;51.362;6.686;2023-06-10T05:52:35;6.63;;;4.63;;
13067;SDS011;6600;51.362;6.686;2023-06-10T05:55:04;6.73;;;4.30;;
13067;SDS011;6600;51.362;6.686;2023-06-10T05:57:30;9.63;;;5.20;;
13067;SDS011;6600;51.362;6.686;2023-06-10T05:59:55;5.87;;;4.47;;
13067;SDS011;6600;51.362;6.686;2023-06-10T06:02:20;6.30;;;4.60;;
13067;SDS011;6600;51.362;6.686;2023-06-10T06:04:46;5.67;;;4.37;;
13067;SDS011;6600;51.362;6.686;2023-06-10T06:07:11;5.17;;;3.80;;
13067;SDS011;6600;51.362;6.686;2023-06-10T06:09:36;6.43;;;4.07;;
13067;SDS011;6600;51.362;6.686;2023-06-10T06:12:02;7.20;;;4.30;;
13067;SDS011;6600;51.362;6.686;2023-06-10T06:14:30;5.40;;;4.40;;
13067;SDS011;6600;51.362;6.686;2023-06-10T06:16:57;5.97;;;4.13;;
13067;SDS011;6600;51.362;6.686;2023-06-10T06:19:22;4.53;;;4.13;;
13067;SDS011;6600;51.362;6.686;2023-06-10T06:21:47;4.83;;;4.27;;
13067;SDS011;6600;51.362;6.686;2023-06-10T06:24:13;4.60;;;4.13;;
13067;SDS011;6600;51.362;6.686;2023-06-10T06:26:40;5.43;;;3.83;;
13067;SDS011;6600;51.362;6.686;2023-06-10T06:29:05;4.93;;;3.77;;
13067;SDS011;6600;51.362;6.686;2023-06-10T06:31:30;4.03;;;3.63;;
13067;SDS011;6600;51.362;6.686;2023-06-10T06:33:56;5.70;;;4.13;;
13067;SDS011;6600;51.362;6.686;2023-06-10T06:36:21;3.70;;;3.40;;
13067;SDS011;6600;51.362;6.686;2023-06-10T06:38:47;7.67;;;3.90;;
13067;SDS011;6600;51.362;6.686;2023-06-10T06:41:13;3.93;;;3.37;;
13067;SDS011;6600;51.362;6.686;2023-06-10T06:43:38;4.87;;;3.63;;
13067;SDS011;6600;51.362;6.686;2023-06-10T06:46:03;4.77;;;3.87;;
13067;SDS011;6600;51.362;6.686;2023-06-10T06:48:28;3.60;;;3.30;;
13067;SDS011;6600;51.362;6.686;2023-06-10T06:50:54;4.70;;;3.90;;
13067;SDS011;6600;51.362;6.686;2023-06-10T06:53:21;4.37;;;3.47;;
13067;SDS011;6600;51.362;6.686;2023-06-10T06:55:47;4.10;;;3.70;;
13067;SDS011;6600;51.362;6.686;2023-06-10T06:58:12;6.00;;;3.70;;
13067;SDS011;6600;51.362;6.686;2023-06-10T07:00:37;3.57;;;3.20;;
13067;SDS011;6600;51.362;6.686;2023-06-10T07:03:03;3.60;;;3.30;;
13067;SDS011;6600;51.362;6.686;2023-06-10T07:05:28;5.20;;;3.47;;
13067;SDS011;6600;51.362;6.686;2023-06-10T07:07:53;3.40;;;3.10;;
13067;SDS011;6600;51.362;6.686;2023-06-10T07:10:21;4.47;;;3.43;;
13067;SDS011;6600;51.362;6.686;2023-06-10T07:12:47;3.63;;;3.33;;
13067;SDS011;6600;51.362;6.686;2023-06-10T07:15:13;3.97;;;3.57;;
13067;SDS011;6600;51.362;6.686;2023-06-10T07:17:39;3.67;;;3.10;;
13067;SDS011;6600;51.362;6.686;2023-06-10T07:20:04;4.63;;;3.63;;
13067;SDS011;6600;51.362;6.686;2023-06-10T07:22:30;3.23;;;2.93;;
13067;SDS011;6600;51.362;6.686;2023-06-10T07:24:55;5.13;;;3.60;;
13067;SDS011;6600;51.362;6.686;2023-06-10T07:27:21;2.80;;;2.50;;
13067;SDS011;6600;51.362;6.686;2023-06-10T07:29:46;3.23;;;2.80;;
13067;SDS011;6600;51.362;6.686;2023-06-10T07:32:11;3.70;;;3.30;;
13067;SDS011;6600;51.362;6.686;2023-06-10T07:34:37;5.30;;;2.97;;
13067;SDS011;6600;51.362;6.686;2023-06-10T07:37:02;3.53;;;3.07;;
13067;SDS011;6600;51.362;6.686;2023-06-10T07:39:27;5.80;;;3.30;;
13067;SDS011;6600;51.362;6.686;2023-06-10T07:41:53;3.47;;;2.63;;
13067;SDS011;6600;51.362;6.686;2023-06-10T07:44:19;3.80;;;3.13;;
13067;SDS011;6600;51.362;6.686;2023-06-10T07:46:44;3.83;;;2.93;;
13067;SDS011;6600;51.362;6.686;2023-06-10T07:49:10;4.27;;;2.97;;
13067;SDS011;6600;51.362;6.686;2023-06-10T07:51:35;3.27;;;2.57;;
13067;SDS011;6600;51.362;6.686;2023-06-10T07:54:01;4.03;;;3.03;;
13067;SDS011;6600;51.362;6.686;2023-06-10T07:56:27;3.57;;;2.83;;
13067;SDS011;6600;51.362;6.686;2023-06-10T07:58:52;4.73;;;3.10;;
13067;SDS011;6600;51.362;6.686;2023-06-10T08:01:17;4.30;;;3.03;;
13067;SDS011;6600;51.362;6.686;2023-06-10T08:03:45;3.10;;;2.80;;
13067;SDS011;6600;51.362;6.686;2023-06-10T08:06:10;4.03;;;2.87;;
13067;SDS011;6600;51.362;6.686;2023-06-10T08:08:36;3.20;;;2.93;;
13067;SDS011;6600;51.362;6.686;2023-06-10T08:11:06;4.23;;;3.33;;
13067;SDS011;6600;51.362;6.686;2023-06-10T08:13:32;3.53;;;2.67;;
13067;SDS011;6600;51.362;6.686;2023-06-10T08:15:57;2.80;;;2.60;;
13067;SDS011;6600;51.362;6.686;2023-06-10T08:18:23;3.67;;;3.30;;
13067;SDS011;6600;51.362;6.686;2023-06-10T08:20:48;3.43;;;3.10;;
13067;SDS011;6600;51.362;6.686;2023-06-10T08:23:14;3.80;;;2.87;;
13067;SDS011;6600;51.362;6.686;2023-06-10T08:25:39;3.83;;;2.80;;
13067;SDS011;6600;51.362;6.686;2023-06-10T08:28:05;3.53;;;3.23;;
13067;SDS011;6600;51.362;6.686;2023-06-10T08:30:30;3.47;;;2.80;;
13067;SDS011;6600;51.362;6.686;2023-06-10T08:32:55;3.60;;;2.90;;
13067;SDS011;6600;51.362;6.686;2023-06-10T08:35:21;4.63;;;3.07;;
13067;SDS011;6600;51.362;6.686;2023-06-10T08:37:46;5.27;;;3.60;;
13067;SDS011;6600;51.362;6.686;2023-06-10T08:40:12;3.30;;;2.97;;
13067;SDS011;6600;51.362;6.686;2023-06-10T08:45:25;5.23;;;3.10;;
13067;SDS011;6600;51.362;6.686;2023-06-10T08:47:54;3.33;;;2.93;;
13067;SDS011;6600;51.362;6.686;2023-06-10T08:50:22;3.20;;;2.90;;
13067;SDS011;6600;51.362;6.686;2023-06-10T08:52:48;3.03;;;2.70;;
13067;SDS011;6600;51.362;6.686;2023-06-10T08:55:18;3.87;;;3.20;;
13067;SDS011;6600;51.362;6.686;2023-06-10T08:57:51;2.97;;;2.67;;
13067;SDS011;6600;51.362;6.686;2023-06-10T09:00:17;4.27;;;3.20;;
13067;SDS011;6600;51.362;6.686;2023-06-10T09:02:43;2.80;;;2.60;;
13067;SDS011;6600;51.362;6.686;2023-06-10T09:05:09;3.20;;;2.90;;
13067;SDS011;6600;51.362;6.686;2023-06-10T09:07:35;3.07;;;2.77;;
13067;SDS011;6600;51.362;6.686;2023-06-10T09:10:02;3.63;;;2.53;;
13067;SDS011;6600;51.362;6.686;2023-06-10T09:12:28;3.73;;;2.93;;
13067;SDS011;6600;51.362;6.686;2023-06-10T09:14:54;3.60;;;3.20;;
13067;SDS011;6600;51.362;6.686;2023-06-10T09:17:20;3.13;;;2.70;;
13067;SDS011;6600;51.362;6.686;2023-06-10T09:19:45;2.50;;;2.30;;
13067;SDS011;6600;51.362;6.686;2023-06-10T09:22:11;4.03;;;3.03;;
13067;SDS011;6600;51.362;6.686;2023-06-10T09:24:36;3.10;;;2.90;;
13067;SDS011;6600;51.362;6.686;2023-06-10T09:27:03;3.27;;;2.97;;
13067;SDS011;6600;51.362;6.686;2023-06-10T09:29:30;4.43;;;3.23;;
13067;SDS011;6600;51.362;6.686;2023-06-10T09:31:55;4.33;;;3.00;;
13067;SDS011;6600;51.362;6.686;2023-06-10T09:34:24;3.33;;;3.03;;
13067;SDS011;6600;51.362;6.686;2023-06-10T09:36:50;3.57;;;3.00;;
13067;SDS011;6600;51.362;6.686;2023-06-10T09:39:16;3.33;;;2.43;;
13067;SDS011;6600;51.362;6.686;2023-06-10T09:41:43;3.37;;;3.07;;
13067;SDS011;6600;51.362;6.686;2023-06-10T09:44:13;3.90;;;3.37;;
13067;SDS011;6600;51.362;6.686;2023-06-10T09:46:46;3.30;;;3.00;;
13067;SDS011;6600;51.362;6.686;2023-06-10T09:49:13;3.77;;;3.47;;
13067;SDS011;6600;51.362;6.686;2023-06-10T09:51:49;3.07;;;2.83;;
13067;SDS011;6600;51.362;6.686;2023-06-10T09:54:16;3.90;;;2.97;;
13067;SDS011;6600;51.362;6.686;2023-06-10T09:56:41;3.67;;;2.90;;
13067;SDS011;6600;51.362;6.686;2023-06-10T09:59:07;5.33;;;2.60;;
13067;SDS011;6600;51.362;6.686;2023-06-10T10:01:34;3.80;;;2.60;;
13067;SDS011;6600;51.362;6.686;2023-06-10T10:04:00;5.80;;;2.90;;
13067;SDS011;6600;51.362;6.686;2023-06-10T10:06:26;3.23;;;2.93;;
13067;SDS011;6600;51.362;6.686;2023-06-10T10:08:52;3.50;;;3.20;;
13067;SDS011;6600;51.362;6.686;2023-06-10T10:11:18;3.83;;;3.30;;
13067;SDS011;6600;51.362;6.686;2023-06-10T10:13:49;3.27;;;2.93;;
13067;SDS011;6600;51.362;6.686;2023-06-10T10:16:25;4.00;;;2.93;;
13067;SDS011;6600;51.362;6.686;2023-06-10T10:18:59;3.20;;;2.90;;
13067;SDS011;6600;51.362;6.686;2023-06-10T10:21:34;2.80;;;2.40;;
13067;SDS011;6600;51.362;6.686;2023-06-10T10:24:05;3.03;;;2.70;;
13067;SDS011;6600;51.362;6.686;2023-06-10T10:26:38;3.03;;;2.83;;
13067;SDS011;6600;51.362;6.686;2023-06-10T10:31:36;3.50;;;2.63;;
13067;SDS011;6600;51.362;6.686;2023-06-10T10:34:07;4.43;;;2.90;;
13067;SDS011;6600;51.362;6.686;2023-06-10T10:36:37;3.27;;;2.90;;
13067;SDS011;6600;51.362;6.686;2023-06-10T10:39:03;4.43;;;2.93;;
13067;SDS011;6600;51.362;6.686;2023-06-10T10:41:30;3.43;;;3.13;;
13067;SDS011;6600;51.362;6.686;2023-06-10T10:43:57;5.27;;;2.70;;
13067;SDS011;6600;51.362;6.686;2023-06-10T10:46:23;4.17;;;3.07;;
13067;SDS011;6600;51.362;6.686;2023-06-10T10:48:53;3.47;;;2.87;;
13067;SDS011;6600;51.362;6.686;2023-06-10T10:51:22;3.30;;;3.00;;
13067;SDS011;6600;51.362;6.686;2023-06-10T10:57:06;5.03;;;3.30;;
13067;SDS011;6600;51.362;6.686;2023-06-10T11:05:14;4.43;;;3.03;;
13067;SDS011;6600;51.362;6.686;2023-06-10T11:07:40;3.57;;;3.20;;
13067;SDS011;6600;51.362;6.686;2023-06-10T11:10:16;3.40;;;3.10;;
13067;SDS011;6600;51.362;6.686;2023-06-10T11:15:10;3.10;;;2.80;;
13067;SDS011;6600;51.362;6.686;2023-06-10T11:17:36;3.20;;;2.90;;
13067;SDS011;6600;51.362;6.686;2023-06-10T11:20:01;3.73;;;3.40;;
13067;SDS011;6600;51.362;6.686;2023-06-10T11:22:26;5.33;;;4.17;;
13067;SDS011;6600;51.362;6.686;2023-06-10T11:24:52;3.67;;;3.30;;
13067;SDS011;6600;51.362;6.686;2023-06-10T11:27:21;4.47;;;3.50;;
13067;SDS011;6600;51.362;6.686;2023-06-10T11:32:32;4.57;;;3.70;;
13067;SDS011;6600;51.362;6.686;2023-06-10T11:34:59;4.33;;;2.80;;
13067;SDS011;6600;51.362;6.686;2023-06-10T11:37:25;4.00;;;3.40;;
13067;SDS011;6600;51.362;6.686;2023-06-10T11:39:53;4.83;;;3.90;;
13067;SDS011;6600;51.362;6.686;2023-06-10T11:42:23;4.30;;;3.23;;
13067;SDS011;6600;51.362;6.686;2023-06-10T11:44:49;4.63;;;3.07;;
13067;SDS011;6600;51.362;6.686;2023-06-10T11:47:18;3.27;;;2.97;;
13067;SDS011;6600;51.362;6.686;2023-06-10T11:49:44;3.37;;;3.07;;
13067;SDS011;6600;51.362;6.686;2023-06-10T11:52:10;4.40;;;3.30;;
13067;SDS011;6600;51.362;6.686;2023-06-10T11:54:36;3.30;;;3.00;;
13067;SDS011;6600;51.362;6.686;2023-06-10T11:57:02;5.33;;;3.43;;
13067;SDS011;6600;51.362;6.686;2023-06-10T11:59:28;4.20;;;3.40;;
13067;SDS011;6600;51.362;6.686;2023-06-10T12:01:54;5.10;;;3.80;;
13067;SDS011;6600;51.362;6.686;2023-06-10T12:04:20;4.27;;;3.23;;
13067;SDS011;6600;51.362;6.686;2023-06-10T12:06:47;3.37;;;3.07;;
13067;SDS011;6600;51.362;6.686;2023-06-10T12:09:17;2.87;;;2.67;;
13067;SDS011;6600;51.362;6.686;2023-06-10T12:11:44;3.80;;;3.43;;
13067;SDS011;6600;51.362;6.686;2023-06-10T12:14:10;3.70;;;3.40;;
13067;SDS011;6600;51.362;6.686;2023-06-10T12:16:35;3.83;;;3.13;;
13067;SDS011;6600;51.362;6.686;2023-06-10T12:19:01;3.10;;;2.90;;
13067;SDS011;6600;51.362;6.686;2023-06-10T12:21:28;3.67;;;3.27;;
13067;SDS011;6600;51.362;6.686;2023-06-10T12:24:07;3.60;;;3.30;;
13067;SDS011;6600;51.362;6.686;2023-06-10T12:26:41;4.13;;;3.57;;
13067;SDS011;6600;51.362;6.686;2023-06-10T12:29:15;6.50;;;4.67;;
13067;SDS011;6600;51.362;6.686;2023-06-10T12:31:52;6.00;;;3.90;;
13067;SDS011;6600;51.362;6.686;2023-06-10T12:34:17;7.43;;;4.13;;
13067;SDS011;6600;51.362;6.686;2023-06-10T12:36:47;5.20;;;4.00;;
13067;SDS011;6600;51.362;6.686;2023-06-10T12:39:15;6.13;;;4.50;;
13067;SDS011;6600;51.362;6.686;2023-06-10T12:41:46;4.93;;;3.83;;
13067;SDS011;6600;51.362;6.686;2023-06-10T12:44:13;4.13;;;3.40;;
13067;SDS011;6600;51.362;6.686;2023-06-10T12:46:39;5.53;;;4.90;;
13067;SDS011;6600;51.362;6.686;2023-06-10T12:49:04;4.07;;;3.60;;
13067;SDS011;6600;51.362;6.686;2023-06-10T12:51:29;3.87;;;3.50;;
13067;SDS011;6600;51.362;6.686;2023-06-10T12:53:55;3.90;;;3.50;;
13067;SDS011;6600;51.362;6.686;2023-06-10T12:56:20;3.30;;;3.00;;
13067;SDS011;6600;51.362;6.686;2023-06-10T12:58:47;5.27;;;3.67;;
13067;SDS011;6600;51.362;6.686;2023-06-10T13:01:12;5.73;;;4.63;;
13067;SDS011;6600;51.362;6.686;2023-06-10T13:03:38;14.20;;;8.80;;
13067;SDS011;6600;51.362;6.686;2023-06-10T13:06:04;18.80;;;11.87;;
13067;SDS011;6600;51.362;6.686;2023-06-10T13:08:30;4.83;;;4.37;;
13067;SDS011;6600;51.362;6.686;2023-06-10T13:10:56;3.27;;;2.97;;
13067;SDS011;6600;51.362;6.686;2023-06-10T13:13:21;4.83;;;4.23;;
13067;SDS011;6600;51.362;6.686;2023-06-10T13:15:46;6.47;;;4.23;;
13067;SDS011;6600;51.362;6.686;2023-06-10T13:18:12;6.33;;;3.93;;
13067;SDS011;6600;51.362;6.686;2023-06-10T13:20:37;4.33;;;3.93;;
13067;SDS011;6600;51.362;6.686;2023-06-10T13:23:02;3.90;;;3.50;;
13067;SDS011;6600;51.362;6.686;2023-06-10T13:25:28;3.10;;;2.90;;
13067;SDS011;6600;51.362;6.686;2023-06-10T13:27:53;3.90;;;3.43;;
13067;SDS011;6600;51.362;6.686;2023-06-10T13:30:19;3.20;;;2.90;;
13067;SDS011;6600;51.362;6.686;2023-06-10T13:32:45;4.30;;;3.90;;
13067;SDS011;6600;51.362;6.686;2023-06-10T13:35:10;4.37;;;4.00;;
13067;SDS011;6600;51.362;6.686;2023-06-10T13:37:35;4.57;;;4.13;;
13067;SDS011;6600;51.362;6.686;2023-06-10T13:40:01;4.53;;;4.13;;
13067;SDS011;6600;51.362;6.686;2023-06-10T13:42:27;4.20;;;3.80;;
13067;SDS011;6600;51.362;6.686;2023-06-10T13:44:54;4.03;;;3.57;;
13067;SDS011;6600;51.362;6.686;2023-06-10T13:47:19;4.27;;;3.50;;
13067;SDS011;6600;51.362;6.686;2023-06-10T13:49:45;3.60;;;3.30;;
13067;SDS011;6600;51.362;6.686;2023-06-10T13:52:11;3.60;;;3.30;;
13067;SDS011;6600;51.362;6.686;2023-06-10T13:54:36;4.50;;;4.10;;
13067;SDS011;6600;51.362;6.686;2023-06-10T13:57:02;3.87;;;3.57;;
13067;SDS011;6600;51.362;6.686;2023-06-10T13:59:28;4.07;;;3.50;;
13067;SDS011;6600;51.362;6.686;2023-06-10T14:01:53;4.57;;;3.47;;
13067;SDS011;6600;51.362;6.686;2023-06-10T14:04:19;3.57;;;3.03;;
13067;SDS011;6600;51.362;6.686;2023-06-10T14:06:46;3.67;;;3.37;;
13067;SDS011;6600;51.362;6.686;2023-06-10T14:09:14;3.27;;;3.00;;
13067;SDS011;6600;51.362;6.686;2023-06-10T14:11:41;3.97;;;3.60;;
13067;SDS011;6600;51.362;6.686;2023-06-10T14:14:07;3.83;;;3.43;;
13067;SDS011;6600;51.362;6.686;2023-06-10T14:16:32;3.93;;;3.37;;
13067;SDS011;6600;51.362;6.686;2023-06-10T14:18:57;3.70;;;3.23;;
13067;SDS011;6600;51.362;6.686;2023-06-10T14:21:23;3.00;;;2.80;;
13067;SDS011;6600;51.362;6.686;2023-06-10T14:23:48;3.20;;;2.90;;
13067;SDS011;6600;51.362;6.686;2023-06-10T14:26:15;4.80;;;3.57;;
13067;SDS011;6600;51.362;6.686;2023-06-10T14:28:40;3.80;;;3.50;;
13067;SDS011;6600;51.362;6.686;2023-06-10T14:31:05;3.73;;;3.43;;
13067;SDS011;6600;51.362;6.686;2023-06-10T14:33:32;3.50;;;3.20;;
13067;SDS011;6600;51.362;6.686;2023-06-10T14:35:57;3.60;;;3.30;;
13067;SDS011;6600;51.362;6.686;2023-06-10T14:38:23;4.57;;;3.30;;
13067;SDS011;6600;51.362;6.686;2023-06-10T14:40:48;3.33;;;2.77;;
13067;SDS011;6600;51.362;6.686;2023-06-10T14:43:14;3.63;;;3.30;;
13067;SDS011;6600;51.362;6.686;2023-06-10T14:45:39;3.43;;;3.13;;
13067;SDS011;6600;51.362;6.686;2023-06-10T14:48:05;3.70;;;3.20;;
13067;SDS011;6600;51.362;6.686;2023-06-10T14:50:32;5.30;;;3.50;;
13067;SDS011;6600;51.362;6.686;2023-06-10T14:52:58;3.83;;;3.30;;
13067;SDS011;6600;51.362;6.686;2023-06-10T14:55:24;3.93;;;3.60;;
13067;SDS011;6600;51.362;6.686;2023-06-10T14:57:49;7.03;;;3.60;;
13067;SDS011;6600;51.362;6.686;2023-06-10T15:00:15;3.60;;;3.30;;
13067;SDS011;6600;51.362;6.686;2023-06-10T15:02:44;3.73;;;3.40;;
13067;SDS011;6600;51.362;6.686;2023-06-10T15:05:09;3.90;;;3.37;;
13067;SDS011;6600;51.362;6.686;2023-06-10T15:07:35;4.60;;;3.77;;
13067;SDS011;6600;51.362;6.686;2023-06-10T15:10:00;5.57;;;4.50;;
13067;SDS011;6600;51.362;6.686;2023-06-10T15:12:25;8.20;;;5.00;;
13067;SDS011;6600;51.362;6.686;2023-06-10T15:14:52;3.77;;;3.47;;
13067;SDS011;6600;51.362;6.686;2023-06-10T15:17:18;3.60;;;3.00;;
13067;SDS011;6600;51.362;6.686;2023-06-10T15:19:43;3.87;;;3.57;;